Current Weather

Chicago O'Hare International

Chicago, Illinois (KORD)

Report from: Monday, March 4, 2024 5:51 PM CST
Current time: Monday, March 4, 2024 6:30 PM CST

Nearby weather – Weather history – Daily summaries
Weather forecast

Temperature20.6°C (69.1°F)
Dew point14.4°C (57.9°F)
Winds 15 kts (7.7 m/s, 17.3 mph) South (190°)
Wind gusts 25 kts (12.9 m/s, 28.8 mph)
Peak wind 31 kts (15.9 m/s, 35.7 mph) South (180°) at 17:12
Visibility10 mi. (16.1 km)
Clouds Few clouds 3,300 ft. (1,006 m)
Few clouds 4,600 ft. (1,402 m)
Scattered clouds 7,000 ft. (2,134 m)
Scattered clouds 13,000 ft. (3,962 m)
Ceiling: Broken clouds 25,000 ft. (7,620 m)
Altimeter29.79 in.Hg (1009 mB)
Relative humidity68 %
Density altitude1,039 ft. (317 m)
Sea-level pressure100.9 kPa (1009 mB, 29.78 in.Hg)
Max temp last 6 hours22.2°C (72.0°F)
Min temp last 6 hours17.2°C (63.0°F)
Remarks Automated weather observing station with precipitation discriminator
Cumulonimbus clouds observed distant west north moving northeast
Pressure falling, then rising
Flight conditions Visual Meteorological Conditions
Raw dataKORD 042351Z 19015G25KT 10SM FEW033 FEW046 SCT070 SCT130 BKN250 21/14 A2979 RMK AO2 PK WND 18031/2312 SLP086 CB DSNT W-N MOV NE T02060144 10222 20172 55005
An error has occurred. This application may no longer respond until reloaded. Reload 🗙